createdAt,value
2023-02-27T00:00:16.540Z,-2.10
2023-02-27T00:02:50.967Z,-2.10
2023-02-27T00:05:22.911Z,-2.10
2023-02-27T00:07:54.739Z,-2.20
2023-02-27T00:10:26.563Z,-2.20
2023-02-27T00:12:58.308Z,-2.20
2023-02-27T00:15:32.839Z,-2.20
2023-02-27T00:18:04.786Z,-2.10
2023-02-27T00:20:38.253Z,-2.10
2023-02-27T00:23:13.094Z,-2.20
2023-02-27T00:25:44.866Z,-2.20
2023-02-27T00:28:16.683Z,-2.20
2023-02-27T00:30:48.600Z,-2.20
2023-02-27T00:33:20.409Z,-2.20
2023-02-27T00:36:00.172Z,-2.20
2023-02-27T00:38:31.972Z,-2.10
2023-02-27T00:41:03.880Z,-2.10
2023-02-27T00:43:35.669Z,-2.10
2023-02-27T00:46:07.428Z,-2.10
2023-02-27T00:48:39.181Z,-2.10
2023-02-27T00:51:10.941Z,-2.10
2023-02-27T00:53:42.679Z,-2.10
2023-02-27T00:56:14.397Z,-2.10
2023-02-27T00:58:46.318Z,-2.10
2023-02-27T01:01:18.067Z,-2.10
2023-02-27T01:03:49.757Z,-2.00
2023-02-27T01:06:21.628Z,-2.00
2023-02-27T01:08:53.457Z,-2.00
2023-02-27T01:11:25.478Z,-2.00
2023-02-27T01:13:57.759Z,-1.90
2023-02-27T01:16:29.522Z,-1.90
2023-02-27T01:19:01.214Z,-2.00
2023-02-27T01:21:33.019Z,-2.00
2023-02-27T01:24:04.967Z,-2.00
2023-02-27T01:26:36.835Z,-2.00
2023-02-27T01:29:08.535Z,-2.10
2023-02-27T01:31:40.303Z,-2.10
2023-02-27T01:34:12.083Z,-2.10
2023-02-27T01:36:43.821Z,-2.20
2023-02-27T01:39:15.592Z,-2.20
2023-02-27T01:41:47.558Z,-2.20
2023-02-27T01:44:19.335Z,-2.20
2023-02-27T01:46:51.031Z,-2.20
2023-02-27T01:49:28.761Z,-2.20
2023-02-27T01:52:06.143Z,-2.30
2023-02-27T01:54:41.865Z,-2.30
2023-02-27T01:57:13.740Z,-2.30
2023-02-27T01:59:45.670Z,-2.30
2023-02-27T02:02:23.508Z,-2.30
2023-02-27T02:04:56.325Z,-2.30
2023-02-27T02:07:29.512Z,-2.30
2023-02-27T02:10:02.455Z,-2.30
2023-02-27T02:12:37.370Z,-2.30
2023-02-27T02:15:09.606Z,-2.30
2023-02-27T02:18:28.150Z,-2.30
2023-02-27T02:21:34.213Z,-2.30
2023-02-27T02:24:11.988Z,-2.30
2023-02-27T02:26:55.769Z,-2.30
2023-02-27T02:30:14.948Z,-2.30
2023-02-27T02:33:10.877Z,-2.30
2023-02-27T02:36:10.339Z,-2.30
2023-02-27T02:39:00.785Z,-2.30
2023-02-27T02:41:45.971Z,-2.40
2023-02-27T02:44:20.271Z,-2.30
2023-02-27T02:47:01.105Z,-2.40
2023-02-27T02:49:53.262Z,-2.40
2023-02-27T02:52:44.413Z,-2.40
2023-02-27T02:55:27.090Z,-2.40
2023-02-27T02:58:10.089Z,-2.40
2023-02-27T03:01:10.867Z,-2.40
2023-02-27T03:03:51.483Z,-2.40
2023-02-27T03:06:27.288Z,-2.40
2023-02-27T03:09:18.898Z,-2.40
2023-02-27T03:11:53.497Z,-2.40
2023-02-27T03:14:30.880Z,-2.40
2023-02-27T03:17:08.944Z,-2.40
2023-02-27T03:19:52.576Z,-2.50
2023-02-27T03:22:31.126Z,-2.50
2023-02-27T03:25:06.885Z,-2.50
2023-02-27T03:27:51.595Z,-2.50
2023-02-27T03:30:36.034Z,-2.50
2023-02-27T03:33:31.341Z,-2.40
2023-02-27T03:36:27.480Z,-2.50
2023-02-27T03:39:20.832Z,-2.50
2023-02-27T03:42:10.271Z,-2.50
2023-02-27T03:44:52.397Z,-2.50
2023-02-27T03:47:24.544Z,-2.50
2023-02-27T03:49:56.850Z,-2.60
2023-02-27T03:52:29.958Z,-2.50
2023-02-27T03:55:34.178Z,-2.50
2023-02-27T03:58:06.113Z,-2.60
2023-02-27T04:00:38.131Z,-2.50
2023-02-27T04:03:10.033Z,-2.50
2023-02-27T04:05:41.983Z,-2.60
2023-02-27T04:08:34.607Z,-2.60
2023-02-27T04:11:18.937Z,-2.60
2023-02-27T04:14:22.478Z,-2.60
2023-02-27T04:17:26.040Z,-2.60
2023-02-27T04:19:57.788Z,-2.60
2023-02-27T04:22:36.160Z,-2.60
2023-02-27T04:25:27.655Z,-2.50
2023-02-27T04:28:08.959Z,-2.60
2023-02-27T04:30:54.327Z,-2.60
2023-02-27T04:34:01.046Z,-2.60
2023-02-27T04:36:46.443Z,-2.60
2023-02-27T04:39:26.397Z,-2.60
2023-02-27T04:42:14.577Z,-2.60
2023-02-27T04:44:49.088Z,-2.60
2023-02-27T04:47:22.948Z,-2.60
2023-02-27T04:50:01.522Z,-2.60
2023-02-27T04:52:44.614Z,-2.60
2023-02-27T04:55:26.576Z,-2.60
2023-02-27T04:58:18.589Z,-2.60
2023-02-27T05:00:57.332Z,-2.60
2023-02-27T05:03:37.573Z,-2.60
2023-02-27T05:06:11.289Z,-2.60
2023-02-27T05:09:17.179Z,-2.60
2023-02-27T05:12:03.358Z,-2.60
2023-02-27T05:14:43.942Z,-2.60
2023-02-27T05:17:20.971Z,-2.60
2023-02-27T05:19:52.832Z,-2.60
2023-02-27T05:23:13.795Z,-2.60
2023-02-27T05:26:13.053Z,-2.60
2023-02-27T05:28:47.513Z,-2.60
2023-02-27T05:31:27.103Z,-2.60
2023-02-27T05:34:14.215Z,-2.60
2023-02-27T05:37:05.123Z,-2.60
2023-02-27T05:39:40.416Z,-2.60
2023-02-27T05:42:18.293Z,-2.60
2023-02-27T05:44:59.482Z,-2.60
2023-02-27T05:47:34.603Z,-2.60
2023-02-27T05:50:12.364Z,-2.60
2023-02-27T05:52:45.800Z,-2.60
2023-02-27T05:55:26.357Z,-2.70
2023-02-27T05:58:04.552Z,-2.70
2023-02-27T06:00:44.398Z,-2.70
2023-02-27T06:03:16.296Z,-2.70
2023-02-27T06:05:52.977Z,-2.70
2023-02-27T06:08:25.215Z,-2.70
2023-02-27T06:10:56.894Z,-2.70
2023-02-27T06:13:28.668Z,-2.70
2023-02-27T06:16:00.617Z,-2.70
2023-02-27T06:18:32.306Z,-2.70
2023-02-27T06:21:04.348Z,-2.70
2023-02-27T06:23:36.261Z,-2.80
2023-02-27T06:26:08.068Z,-2.70
2023-02-27T06:28:40.806Z,-2.80
2023-02-27T06:31:12.554Z,-2.80
2023-02-27T06:33:44.420Z,-2.80
2023-02-27T06:36:16.140Z,-2.80
2023-02-27T06:38:47.871Z,-2.80
2023-02-27T06:41:19.676Z,-2.80
2023-02-27T06:43:51.588Z,-2.70
2023-02-27T06:46:23.370Z,-2.70
2023-02-27T06:48:55.062Z,-2.70
2023-02-27T06:51:26.855Z,-2.70
2023-02-27T06:53:58.610Z,-2.70
2023-02-27T06:56:30.364Z,-2.60
2023-02-27T06:59:02.334Z,-2.60
2023-02-27T07:01:34.152Z,-2.60
2023-02-27T07:04:05.901Z,-2.60
2023-02-27T07:07:34.814Z,-2.50
2023-02-27T07:09:29.293Z,-2.50
2023-02-27T07:12:01.603Z,-2.40
2023-02-27T07:14:33.476Z,-2.40
2023-02-27T07:17:05.730Z,-2.40
2023-02-27T07:19:37.498Z,-2.30
2023-02-27T07:22:12.270Z,-2.30
2023-02-27T07:24:44.124Z,-2.20
2023-02-27T07:27:15.981Z,-2.20
2023-02-27T07:29:47.667Z,-2.10
2023-02-27T07:32:19.530Z,-2.00
2023-02-27T07:34:51.241Z,-2.00
2023-02-27T07:37:23.020Z,-1.90
2023-02-27T07:39:54.788Z,-1.90
2023-02-27T07:42:26.527Z,-1.90
2023-02-27T07:44:58.312Z,-1.80
2023-02-27T07:47:30.550Z,-1.80
2023-02-27T07:50:03.764Z,-1.70
2023-02-27T07:52:36.284Z,-1.60
2023-02-27T07:55:08.921Z,-1.60
2023-02-27T07:57:40.895Z,-1.60
2023-02-27T08:00:13.619Z,-1.50
2023-02-27T08:02:45.464Z,-1.50
2023-02-27T08:05:17.294Z,-1.40
2023-02-27T08:07:49.056Z,-1.40
2023-02-27T08:10:21.002Z,-1.30
2023-02-27T08:12:52.814Z,-1.30
2023-02-27T08:15:24.757Z,-1.30
2023-02-27T08:17:56.430Z,-1.20
2023-02-27T08:20:28.183Z,-1.10
2023-02-27T08:23:00.022Z,-1.10
2023-02-27T08:25:31.869Z,-1.00
2023-02-27T08:28:03.944Z,-1.00
2023-02-27T08:30:35.624Z,-1.00
2023-02-27T08:33:07.554Z,-0.90
2023-02-27T08:35:39.350Z,-0.90
2023-02-27T08:38:11.085Z,-0.80
2023-02-27T08:40:42.857Z,-0.80
2023-02-27T08:43:14.529Z,-0.80
2023-02-27T08:45:46.871Z,-0.70
2023-02-27T08:48:18.970Z,-0.60
2023-02-27T08:50:51.186Z,-0.60
2023-02-27T08:53:23.084Z,-0.60
2023-02-27T08:55:54.929Z,-0.50
2023-02-27T08:58:28.286Z,-0.50
2023-02-27T09:01:00.059Z,-0.40
2023-02-27T09:03:31.834Z,-0.30
2023-02-27T09:06:03.561Z,-0.20
2023-02-27T09:08:35.216Z,-0.20
2023-02-27T09:11:07.660Z,-0.10
2023-02-27T09:13:39.339Z,0.00
2023-02-27T09:16:11.232Z,0.10
2023-02-27T09:18:43.058Z,0.20
2023-02-27T09:21:15.239Z,0.10
2023-02-27T09:23:47.000Z,0.20
2023-02-27T09:26:18.959Z,0.30
2023-02-27T09:28:51.196Z,0.40
2023-02-27T09:31:22.983Z,0.40
2023-02-27T09:33:57.189Z,0.60
2023-02-27T09:36:29.665Z,0.70
2023-02-27T09:39:01.653Z,0.70
2023-02-27T09:41:42.618Z,0.80
2023-02-27T09:44:46.558Z,0.80
2023-02-27T09:47:27.614Z,0.90
2023-02-27T09:50:18.238Z,1.00
2023-02-27T09:52:49.947Z,1.40
2023-02-27T09:55:23.166Z,2.10
2023-02-27T09:58:32.220Z,3.10
2023-02-27T10:01:16.236Z,4.10
2023-02-27T10:04:21.723Z,5.70
2023-02-27T10:07:04.324Z,6.80
2023-02-27T10:10:17.285Z,6.80
2023-02-27T10:13:03.784Z,7.20
2023-02-27T10:15:41.801Z,7.00
2023-02-27T10:18:26.129Z,6.80
2023-02-27T10:21:03.242Z,6.80
2023-02-27T10:23:44.287Z,6.90
2023-02-27T10:26:22.677Z,6.80
2023-02-27T10:28:54.360Z,7.00
2023-02-27T10:31:31.430Z,7.60
2023-02-27T10:34:03.894Z,8.60
2023-02-27T10:36:35.974Z,8.10
2023-02-27T10:39:12.690Z,7.50
2023-02-27T10:41:46.505Z,7.10
2023-02-27T10:44:18.834Z,6.80
2023-02-27T10:46:52.047Z,7.40
2023-02-27T10:49:24.267Z,7.30
2023-02-27T10:52:14.936Z,6.50
2023-02-27T10:54:47.543Z,6.40
2023-02-27T10:57:25.858Z,7.10
2023-02-27T11:00:05.858Z,7.70
2023-02-27T11:02:43.459Z,8.00
2023-02-27T11:05:34.317Z,7.30
2023-02-27T11:08:29.566Z,6.40
2023-02-27T11:11:09.759Z,6.00
2023-02-27T11:13:43.676Z,6.80
2023-02-27T11:16:21.874Z,6.40
2023-02-27T11:18:54.484Z,5.60
2023-02-27T11:21:30.771Z,6.00
2023-02-27T11:24:08.469Z,6.90
2023-02-27T11:26:53.578Z,7.30
2023-02-27T11:29:26.370Z,6.50
2023-02-27T11:32:09.973Z,4.70
2023-02-27T11:34:49.528Z,4.30
2023-02-27T11:37:51.285Z,4.00
2023-02-27T11:40:36.688Z,3.50
2023-02-27T11:43:33.781Z,3.20
2023-02-27T11:46:42.631Z,3.20
2023-02-27T11:49:24.225Z,3.40
2023-02-27T11:52:15.140Z,3.70
2023-02-27T11:55:10.607Z,4.00
2023-02-27T11:57:46.268Z,4.00
2023-02-27T12:00:19.936Z,4.10
2023-02-27T12:03:00.687Z,4.00
2023-02-27T12:05:39.039Z,3.70
2023-02-27T12:08:18.700Z,3.40
2023-02-27T12:11:13.822Z,3.40
2023-02-27T12:13:53.558Z,3.30
2023-02-27T12:16:36.577Z,3.60
2023-02-27T12:19:37.642Z,3.90
2023-02-27T12:22:28.914Z,3.90
2023-02-27T12:25:04.049Z,3.50
2023-02-27T12:27:50.289Z,3.40
2023-02-27T12:30:27.808Z,3.70
2023-02-27T12:33:27.049Z,3.90
2023-02-27T12:36:03.451Z,4.20
2023-02-27T12:38:38.038Z,4.30
2023-02-27T12:41:27.196Z,4.10
2023-02-27T12:44:37.449Z,4.20
2023-02-27T12:47:38.469Z,4.20
2023-02-27T12:50:20.634Z,4.50
2023-02-27T12:53:10.100Z,4.30
2023-02-27T12:55:51.160Z,4.50
2023-02-27T12:58:47.544Z,4.60
2023-02-27T13:01:51.119Z,4.30
2023-02-27T13:04:26.094Z,4.20
2023-02-27T13:07:13.193Z,4.10
2023-02-27T13:09:50.648Z,4.10
2023-02-27T13:12:36.605Z,4.10
2023-02-27T13:15:11.101Z,4.30
2023-02-27T13:17:49.695Z,4.50
2023-02-27T13:20:21.349Z,4.10
2023-02-27T13:23:15.639Z,3.70
2023-02-27T13:25:51.116Z,3.50
2023-02-27T13:28:28.306Z,3.40
2023-02-27T13:31:09.552Z,3.20
2023-02-27T13:33:54.419Z,3.20
2023-02-27T13:36:52.089Z,3.40
2023-02-27T13:39:56.200Z,3.50
2023-02-27T13:42:28.100Z,3.50
2023-02-27T13:45:44.438Z,3.30
2023-02-27T13:48:34.283Z,3.20
2023-02-27T13:51:10.761Z,3.10
2023-02-27T13:53:42.580Z,3.10
2023-02-27T13:56:23.369Z,3.10
2023-02-27T13:58:57.651Z,3.10
2023-02-27T14:01:31.133Z,3.10
2023-02-27T14:04:06.198Z,2.80
2023-02-27T14:06:45.232Z,2.90
2023-02-27T14:09:21.386Z,2.90
2023-02-27T14:11:56.800Z,3.00
2023-02-27T14:14:39.920Z,2.90
2023-02-27T14:17:37.479Z,2.90
2023-02-27T14:20:19.469Z,2.90
2023-02-27T14:23:17.122Z,2.80
2023-02-27T14:26:05.792Z,2.70
2023-02-27T14:28:48.428Z,2.80
2023-02-27T14:31:23.424Z,2.80
2023-02-27T14:33:58.852Z,2.80
2023-02-27T14:36:34.606Z,2.70
2023-02-27T14:39:06.597Z,2.70
2023-02-27T14:41:49.458Z,2.70
2023-02-27T14:44:26.248Z,2.60
2023-02-27T14:47:02.730Z,2.60
2023-02-27T14:49:36.152Z,2.60
2023-02-27T14:52:41.493Z,2.50
2023-02-27T14:55:19.103Z,2.50
2023-02-27T14:58:13.488Z,2.50
2023-02-27T15:01:10.878Z,2.50
2023-02-27T15:03:52.776Z,2.40
2023-02-27T15:06:40.926Z,2.40
2023-02-27T15:09:32.871Z,2.30
2023-02-27T15:12:05.126Z,2.30
2023-02-27T15:14:39.668Z,2.30
2023-02-27T15:17:19.914Z,2.30
2023-02-27T15:19:54.451Z,2.30
2023-02-27T15:22:38.928Z,2.20
2023-02-27T15:25:38.494Z,2.10
2023-02-27T15:28:24.277Z,2.10
2023-02-27T15:30:56.781Z,2.10
2023-02-27T15:33:31.007Z,2.10
2023-02-27T15:36:02.892Z,2.00
2023-02-27T15:38:36.230Z,2.10
2023-02-27T15:41:12.628Z,2.00
2023-02-27T15:43:44.789Z,1.90
2023-02-27T15:46:16.524Z,1.90
2023-02-27T15:48:56.213Z,1.80
2023-02-27T15:51:29.226Z,1.80
2023-02-27T15:54:04.098Z,1.80
2023-02-27T15:56:38.913Z,1.80
2023-02-27T15:59:16.613Z,1.70
2023-02-27T16:01:49.762Z,1.60
2023-02-27T16:04:26.271Z,1.60
2023-02-27T16:07:03.107Z,1.50
2023-02-27T16:09:38.354Z,1.60
2023-02-27T16:12:25.067Z,1.60
2023-02-27T16:15:30.321Z,1.50
2023-02-27T16:18:08.522Z,1.40
2023-02-27T16:20:54.686Z,1.30
2023-02-27T16:23:29.135Z,1.30
2023-02-27T16:26:08.783Z,1.30
2023-02-27T16:28:55.462Z,1.20
2023-02-27T16:31:32.206Z,1.30
2023-02-27T16:34:12.845Z,1.30
2023-02-27T16:36:59.033Z,1.20
2023-02-27T16:39:31.738Z,1.20
2023-02-27T16:42:03.425Z,1.20
2023-02-27T16:44:35.818Z,1.20
2023-02-27T16:47:07.478Z,1.20
2023-02-27T16:49:40.475Z,1.20
2023-02-27T16:52:12.483Z,1.20
2023-02-27T16:54:44.222Z,1.10
2023-02-27T16:57:17.643Z,1.10
2023-02-27T16:59:49.374Z,1.00
2023-02-27T17:02:21.066Z,1.00
2023-02-27T17:04:52.768Z,1.00
2023-02-27T17:07:24.521Z,1.00
2023-02-27T17:09:56.300Z,1.00
2023-02-27T17:12:28.035Z,1.00
2023-02-27T17:14:59.744Z,1.00
2023-02-27T17:17:31.406Z,1.00
2023-02-27T17:20:07.053Z,1.00
2023-02-27T17:22:44.465Z,1.00
2023-02-27T17:25:16.285Z,1.00
2023-02-27T17:27:47.970Z,0.90
2023-02-27T17:30:20.357Z,0.90
2023-02-27T17:32:52.079Z,1.00
2023-02-27T17:35:25.564Z,0.90
2023-02-27T17:37:59.431Z,0.80
2023-02-27T17:40:31.150Z,0.80
2023-02-27T17:43:02.890Z,0.70
2023-02-27T17:45:34.556Z,0.70
2023-02-27T17:48:06.472Z,0.70
2023-02-27T17:50:38.714Z,0.60
2023-02-27T17:53:11.635Z,0.60
2023-02-27T17:55:43.370Z,0.60
2023-02-27T17:58:16.934Z,0.60
2023-02-27T18:00:48.714Z,0.60
2023-02-27T18:03:20.444Z,0.60
2023-02-27T18:05:53.684Z,0.50
2023-02-27T18:08:25.493Z,0.60
2023-02-27T18:10:57.494Z,0.60
2023-02-27T18:13:29.835Z,0.50
2023-02-27T18:16:01.718Z,0.50
2023-02-27T18:18:36.463Z,0.50
2023-02-27T18:21:11.572Z,0.60
2023-02-27T18:23:44.279Z,0.60
2023-02-27T18:26:29.902Z,0.60
2023-02-27T18:29:10.502Z,0.50
2023-02-27T18:31:44.542Z,0.50
2023-02-27T18:34:16.398Z,0.50
2023-02-27T18:36:48.265Z,0.50
2023-02-27T18:39:20.026Z,0.50
2023-02-27T18:41:51.859Z,0.50
2023-02-27T18:44:23.600Z,0.40
2023-02-27T18:46:55.425Z,0.30
2023-02-27T18:49:27.264Z,0.30
2023-02-27T18:51:58.930Z,0.20
2023-02-27T18:54:30.742Z,0.20
2023-02-27T18:57:02.592Z,0.20
2023-02-27T18:59:34.389Z,0.20
2023-02-27T19:02:06.505Z,0.20
2023-02-27T19:04:38.217Z,0.20
2023-02-27T19:07:09.877Z,0.30
2023-02-27T19:09:43.023Z,0.30
2023-02-27T19:12:14.916Z,0.30
2023-02-27T19:14:46.733Z,0.20
2023-02-27T19:17:18.397Z,0.20
2023-02-27T19:19:50.739Z,0.20
2023-02-27T19:22:22.517Z,0.20
2023-02-27T19:24:54.197Z,0.20
2023-02-27T19:27:26.024Z,0.20
2023-02-27T19:29:57.806Z,0.20
2023-02-27T19:32:30.779Z,0.20
2023-02-27T19:35:02.899Z,0.20
2023-02-27T19:37:34.609Z,0.20
2023-02-27T19:40:07.293Z,0.20
2023-02-27T19:42:39.236Z,0.10
2023-02-27T19:45:11.217Z,0.00
2023-02-27T19:47:43.554Z,-0.10
2023-02-27T19:50:16.194Z,-0.10
2023-02-27T19:52:47.927Z,-0.10
2023-02-27T19:55:19.591Z,-0.20
2023-02-27T19:57:51.371Z,-0.20
2023-02-27T20:00:23.520Z,-0.20
2023-02-27T20:02:55.325Z,-0.20
2023-02-27T20:05:27.096Z,-0.20
2023-02-27T20:07:58.887Z,-0.30
2023-02-27T20:10:30.649Z,-0.30
2023-02-27T20:13:02.568Z,-0.30
2023-02-27T20:15:34.304Z,-0.30
2023-02-27T20:18:06.100Z,-0.30
2023-02-27T20:20:39.957Z,-0.30
2023-02-27T20:23:15.386Z,-0.30
2023-02-27T20:25:47.039Z,-0.20
2023-02-27T20:28:18.840Z,-0.30
2023-02-27T20:30:50.716Z,-0.30
2023-02-27T20:33:22.480Z,-0.20
2023-02-27T20:35:54.261Z,-0.20
2023-02-27T20:38:25.990Z,-0.20
2023-02-27T20:40:58.302Z,-0.30
2023-02-27T20:43:30.019Z,-0.20
2023-02-27T20:46:11.567Z,-0.30
2023-02-27T20:48:44.195Z,-0.30
2023-02-27T20:51:19.934Z,-0.30
2023-02-27T20:53:54.594Z,-0.40
2023-02-27T20:56:29.181Z,-0.40
2023-02-27T20:59:04.096Z,-0.30
2023-02-27T21:01:38.369Z,-0.30
2023-02-27T21:04:10.458Z,-0.30
2023-02-27T21:06:42.219Z,-0.20
2023-02-27T21:09:14.080Z,-0.30
2023-02-27T21:11:45.974Z,-0.30
2023-02-27T21:14:17.741Z,-0.30
2023-02-27T21:16:49.408Z,-0.40
2023-02-27T21:19:23.700Z,-0.40
2023-02-27T21:21:55.470Z,-0.40
2023-02-27T21:24:27.305Z,-0.40
2023-02-27T21:26:59.599Z,-0.40
2023-02-27T21:29:31.617Z,-0.50
2023-02-27T21:32:03.448Z,-0.60
2023-02-27T21:34:35.239Z,-0.60
2023-02-27T21:37:08.896Z,-0.60
2023-02-27T21:39:40.663Z,-0.60
2023-02-27T21:42:12.332Z,-0.60
2023-02-27T21:44:44.109Z,-0.60
2023-02-27T21:47:15.829Z,-0.50
2023-02-27T21:49:47.536Z,-0.60
2023-02-27T21:52:19.358Z,-0.60
2023-02-27T21:54:51.123Z,-0.60
2023-02-27T21:57:23.050Z,-0.60
2023-02-27T21:59:54.778Z,-0.60
2023-02-27T22:02:26.660Z,-0.70
2023-02-27T22:04:58.697Z,-0.70
2023-02-27T22:07:30.408Z,-0.80
2023-02-27T22:10:02.681Z,-0.80
2023-02-27T22:12:34.439Z,-0.90
2023-02-27T22:15:06.631Z,-0.80
2023-02-27T22:17:38.403Z,-0.90
2023-02-27T22:20:11.569Z,-0.90
2023-02-27T22:22:43.219Z,-1.00
2023-02-27T22:25:15.011Z,-1.00
2023-02-27T22:27:46.809Z,-1.00
2023-02-27T22:30:18.704Z,-1.00
2023-02-27T22:32:50.405Z,-1.10
2023-02-27T22:35:22.842Z,-1.10
2023-02-27T22:37:54.706Z,-1.10
2023-02-27T22:40:29.476Z,-1.10
2023-02-27T22:43:01.225Z,-1.10
2023-02-27T22:45:32.947Z,-1.20
2023-02-27T22:48:04.811Z,-1.20
2023-02-27T22:50:36.524Z,-1.20
2023-02-27T22:53:08.216Z,-1.20
2023-02-27T22:55:39.941Z,-1.20
2023-02-27T22:58:11.713Z,-1.30
2023-02-27T23:00:43.388Z,-1.30
2023-02-27T23:03:15.507Z,-1.30
2023-02-27T23:05:48.394Z,-1.30
2023-02-27T23:08:20.148Z,-1.30
2023-02-27T23:10:51.917Z,-1.30
2023-02-27T23:13:23.720Z,-1.30
2023-02-27T23:15:55.439Z,-1.30
2023-02-27T23:18:27.829Z,-1.30
2023-02-27T23:21:03.479Z,-1.40
2023-02-27T23:23:35.820Z,-1.40
2023-02-27T23:26:07.944Z,-1.40
2023-02-27T23:28:40.449Z,-1.40
2023-02-27T23:31:12.179Z,-1.40
2023-02-27T23:33:44.005Z,-1.50
2023-02-27T23:36:15.702Z,-1.50
2023-02-27T23:38:47.632Z,-1.50
2023-02-27T23:41:20.792Z,-1.50
2023-02-27T23:43:52.783Z,-1.50
2023-02-27T23:46:24.568Z,-1.50
2023-02-27T23:48:58.208Z,-1.50
2023-02-27T23:51:31.098Z,-1.50
2023-02-27T23:54:03.508Z,-1.60
2023-02-27T23:56:35.251Z,-1.60
2023-02-27T23:59:07.187Z,-1.60
